Have a Safe July 4th! 

Flight Track Log - Related Links

Times and Time Zones

All times are in EDT time to prevent confusion due to time zone crossing. See the VH-ZWO flight status page for this flight to view local times or setup timezone preferences in your user account.

Time Position Orientation Groundspeed Altitude Reporting Facility
EDT Latitude Longitude Course Direction KTS MPH feet Rate Location/Type
Sat 11:35:20 AM -28.9317 114.8073 158° South 21,000  Level Aus ATC (Calculated)
Sat 11:38:00 AM -28.9357 114.8102 148° Southeast  Level FlightAware Approximate
Sat 11:38:53 AM -29.1436 114.9597 190° South 21,000  Level Aus ATC (Calculated)
Sat 11:39:10 AM -29.1436 114.9597 190° South 21,000 -1,500 Level Aus ATC (Calculated)
Sat 11:40:07 AM -29.1436 114.9597 190° South 21,000 -1,610 Level Aus ATC (Calculated)
Sat 11:41:00 AM -29.2625 115.0455 148° Southeast  Level FlightAware Approximate
Sat 11:42:00 AM -29.3273 115.0924 148° Southeast  Level FlightAware Approximate
Sat 11:43:00 AM -29.3305 115.0948 148° Southeast  Level FlightAware Approximate
Sat 11:43:01 AM -29.2202 114.9434 148° Southeast 194 223 14,800  Level Aus ATC (RADAR)
Sat 11:45:30 AM -29.3497 114.9895 163° South 203 234 17,600 1,091 Climbing Aus ATC (RADAR)
Sat 11:46:30 AM -29.4018 115.0120 163° South 195 224 18,600 878 Climbing Aus ATC (RADAR)
Sat 11:46:52 AM -29.4180 115.0190 163° South 190 219 18,800 737 Climbing FlightAware ADS-B
Sat 11:47:27 AM -29.4500 115.0310 162° South 201 231 19,300 825 Climbing FlightAware ADS-B
Sat 11:48:12 AM -29.4900 115.0450 162° South 200 230 19,900 1,000 Climbing FlightAware ADS-B
Sat 11:48:15 AM -29.4951 115.0442 162° South 197 227 20,100 977 Climbing Aus ATC (RADAR)
Sat 11:48:55 AM -29.5310 115.0573 162° South 201 231 20,600 429 Climbing Aus ATC (RADAR)
Sat 11:48:57 AM -29.5290 115.0590 162° South 204 235 20,400 486 Descending FlightAware ADS-B
Sat 11:49:32 AM -29.5630 115.0720 162° South 206 237 20,900 828 Climbing FlightAware ADS-B
Sat 11:49:55 AM -29.5867 115.0740 162° South 208 239 21,200 67 Climbing Aus ATC (RADAR)
Sat 11:51:02 AM -29.6530 115.1040 162° South 241 277 21,000 -71 Descending FlightAware ADS-B
Sat 11:51:20 AM -29.6756 115.1104 162° South 246 283 21,100 207 Climbing Aus ATC (RADAR)
Sat 11:52:00 AM -29.7211 115.1262 163° South 255 293 21,200 -115 Climbing Aus ATC (RADAR)
Sat 11:52:12 AM -29.7330 115.1340 163° South 253 291 21,000 -100 Descending FlightAware ADS-B
Sat 11:53:00 AM -29.7904 115.1540 163° South 262 302 21,100  Climbing Aus ATC (RADAR)
Sat 11:53:22 AM -29.8150 115.1640 163° South 267 307 21,000  Descending FlightAware ADS-B
Sat 11:54:20 AM -29.8850 115.1877 163° South 265 305 21,100  Climbing Aus ATC (RADAR)
Sat 11:54:32 AM -29.8970 115.1950 163° South 269 310 21,000  Descending FlightAware ADS-B
Sat 11:55:14 AM -29.9499 115.2132 163° South 266 306 21,100  Climbing Aus ATC (RADAR)
Sat 11:55:42 AM -29.9810 115.2250 163° South 270 311 21,000  Descending FlightAware ADS-B
Sat 11:56:14 AM -30.0217 115.2387 163° South 268 308 21,100  Climbing Aus ATC (RADAR)
Sat 11:57:22 AM -30.0970 115.2690 163° South 271 312 21,000 -56 Descending FlightAware ADS-B
Sat 11:58:02 AM -30.1440 115.2860 163° South 272 313 21,000 83 Level FlightAware ADS-B
Sat 11:58:34 AM -30.1896 115.2993 163° South 271 312 21,100  Climbing Aus ATC (RADAR)
Sat 11:58:47 AM -30.1980 115.3060 163° South 271 312 21,000  Descending FlightAware ADS-B
Sat 11:59:39 AM -30.2655 115.3330 163° South 266 306 21,100  Climbing Aus ATC (RADAR)
Sat 11:59:42 AM -30.2630 115.3300 163° South 269 310 21,000 -140 Descending FlightAware ADS-B
Sat 12:00:22 PM -30.3110 115.3480 162° South 258 297 21,000 90 Level FlightAware ADS-B
Sat 12:00:49 PM -30.3482 115.3622 162° South 264 304 21,100  Climbing Aus ATC (RADAR)
Sat 12:01:02 PM -30.3570 115.3650 162° South 258 297 21,000 -125 Descending FlightAware ADS-B
Sat 12:01:37 PM -30.3990 115.3810 162° South 257 296 21,000 105 Level FlightAware ADS-B
Sat 12:01:59 PM -30.4302 115.3910 162° South 262 302 21,100  Climbing Aus ATC (RADAR)
Sat 12:02:27 PM -30.4560 115.4020 162° South 257 296 21,000  Descending FlightAware ADS-B
Sat 12:02:49 PM -30.4887 115.4128 162° South 263 303 21,100  Climbing Aus ATC (RADAR)
Sat 12:03:07 PM -30.5030 115.4200 162° South 256 295 21,000  Descending FlightAware ADS-B
Sat 12:03:49 PM -30.5581 115.4395 162° South 261 300 21,100  Climbing Aus ATC (RADAR)
Sat 12:03:52 PM -30.5550 115.4390 162° South 257 296 21,000 -140 Descending FlightAware ADS-B
Sat 12:04:32 PM -30.6020 115.4570 162° South 256 295 21,000 97 Level FlightAware ADS-B
Sat 12:04:54 PM -30.6340 115.4678 162° South 262 302 21,100  Climbing Aus ATC (RADAR)
Sat 12:05:12 PM -30.6490 115.4740 162° South 257 296 21,000  Descending FlightAware ADS-B
Sat 12:05:54 PM -30.7034 115.4952 162° South 263 303 21,100  Climbing Aus ATC (RADAR)
Sat 12:05:57 PM -30.7020 115.4940 162° South 257 296 21,000 -125 Descending FlightAware ADS-B
Sat 12:06:42 PM -30.7560 115.5150 162° South 258 297 21,000 91 Level FlightAware ADS-B
Sat 12:07:03 PM -30.7855 115.5253 162° South 263 303 21,100  Climbing Aus ATC (RADAR)
Sat 12:07:22 PM -30.8020 115.5320 162° South 257 296 21,000 -102 Descending FlightAware ADS-B
Sat 12:08:02 PM -30.8510 115.5500 162° South 257 296 21,000  Level FlightAware ADS-B
Sat 12:08:47 PM -30.9040 115.5700 162° South 256 295 21,000 91 Level FlightAware ADS-B
Sat 12:09:08 PM -30.9312 115.5803 162° South 263 303 21,100  Climbing Aus ATC (RADAR)
Sat 12:09:27 PM -30.9460 115.5860 162° South 256 295 21,000  Descending FlightAware ADS-B
Sat 12:10:08 PM -31.0009 115.6065 162° South 263 303 21,100  Climbing Aus ATC (RADAR)
Sat 12:10:12 PM -31.0010 115.6070 162° South 256 295 21,000 -176 Descending FlightAware ADS-B
Sat 12:10:42 PM -31.0380 115.6210 162° South 256 295 21,000 107 Level FlightAware ADS-B
Sat 12:11:08 PM -31.0707 115.6329 162° South 263 303 21,100 -109 Climbing Aus ATC (RADAR)
Sat 12:11:37 PM -31.0980 115.6440 162° South 257 296 20,900 -1,017 Descending FlightAware ADS-B
Sat 12:12:07 PM -31.1380 115.6590 162° South 271 312 20,100 -1,500 Descending FlightAware ADS-B
Sat 12:12:13 PM -31.1472 115.6616 162° South 270 311 20,000 -1,440 Descending Aus ATC (RADAR)
Sat 12:12:57 PM -31.1960 115.6810 162° South 271 312 18,900 -1,500 Descending FlightAware ADS-B
Sat 12:13:13 PM -31.2186 115.6893 162° South 270 311 18,500 -1,600 Descending Aus ATC (RADAR)
Sat 12:13:42 PM -31.2520 115.7020 162° South 268 308 17,700 -1,600 Descending FlightAware ADS-B
Sat 12:14:13 PM -31.2923 115.7110 162° South 272 313 16,900 -1,500 Descending Aus ATC (RADAR)
Sat 12:14:22 PM -31.2970 115.7120 162° South 264 304 16,700 -1,667 Descending FlightAware ADS-B
Sat 12:15:07 PM -31.3550 115.7240 170° South 261 300 15,400 -1,553 Descending FlightAware ADS-B
Sat 12:15:47 PM -31.4010 115.7330 171° South 262 302 14,500 -1,371 Descending FlightAware ADS-B
Sat 12:16:17 PM -31.4436 115.7420 171° South 261 300 13,800 -1,543 Descending Aus ATC (RADAR)
Sat 12:16:22 PM -31.4460 115.7430 171° South 249 287 13,600 -1,527 Descending FlightAware ADS-B
Sat 12:17:12 PM -31.5020 115.7550 170° South 245 282 12,400 -1,440 Descending FlightAware ADS-B
Sat 12:18:02 PM -31.5580 115.7660 170° South 246 283 11,200 -1,477 Descending FlightAware ADS-B
Sat 12:18:17 PM -31.5810 115.7707 170° South 246 283 10,800 -1,600 Descending Aus ATC (RADAR)
Sat 12:18:47 PM -31.6100 115.7770 170° South 234 269 10,000 -1,500 Descending FlightAware ADS-B
Sat 12:19:17 PM -31.6410 115.7840 169° South 233 268 9,300 -1,600 Descending FlightAware ADS-B
Sat 12:19:47 PM -31.6770 115.7920 169° South 229 264 8,400 -1,636 Descending FlightAware ADS-B
Sat 12:20:12 PM -31.7010 115.7970 170° South 230 265 7,800 -1,418 Descending FlightAware ADS-B
Sat 12:20:42 PM -31.7330 115.8040 169° South 215 247 7,100 -1,500 Descending FlightAware ADS-B
Sat 12:20:52 PM -31.7430 115.8060 170° South 213 245 6,800 -1,467 Descending FlightAware ADS-B
Sat 12:21:27 PM -31.7813 115.8137 170° South 216 249 6,000 -1,440 Descending Aus ATC (RADAR)
Sat 12:22:32 PM -31.8360 115.8250 170° South 201 231 4,400 -1,553 Descending FlightAware ADS-B
Sat 12:22:52 PM -31.8603 115.8305 170° South 203 234 3,800 -1,600 Descending Aus ATC (RADAR)
Sat 12:23:02 PM -31.8650 115.8310 170° South 196 226 3,600 -1,371 Descending FlightAware ADS-B
Sat 12:23:27 PM -31.8910 115.8370 169° South 199 229 3,000 -655 Descending FlightAware ADS-B
Sat 12:23:57 PM -31.9182 115.8429 169° South 186 214 3,000 -200 Level Aus ATC (RADAR)
Sat 12:23:57 PM -31.9160 115.8420 169° South 169 194 2,900 -1,400 Descending FlightAware ADS-B
Sat 12:24:27 PM -31.9420 115.8480 169° South 194 223 2,300 -1,091 Descending FlightAware ADS-B
Sat 12:24:52 PM -31.9640 115.8520 171° South 184 212 1,900 -367 Descending FlightAware ADS-B
Sat 12:25:16 PM -31.9867 115.8574 171° South 185 213 2,000  Climbing Aus ATC (RADAR)
Sat 12:25:22 PM -31.9890 115.8580 171° South 165 190 1,900 -500 Descending FlightAware ADS-B
Sat 12:25:52 PM -32.0120 115.8630 170° South 163 188 1,700 -327 Descending FlightAware ADS-B
Sat 12:26:17 PM -32.0310 115.8670 170° South 167 192 1,600 -150 Descending FlightAware ADS-B
Sat 12:26:32 PM -32.0430 115.8690 172° South 151 174 1,600 -267 Level FlightAware ADS-B
Sat 12:27:02 PM -32.0650 115.8730 171° South 165 190 1,400 -367 Descending FlightAware ADS-B
Sat 12:27:21 PM -32.0813 115.8745 171° South 164 189 1,300 -480 Descending Aus ATC (RADAR)
Sat 12:27:27 PM -32.0840 115.8740 171° South 164 189 1,200 -333 Descending FlightAware ADS-B
Sat 12:27:57 PM -32.1050 115.8830 160° South 157 181 1,100 -133 Descending FlightAware ADS-B
Sat 12:28:12 PM -32.1120 115.8930 130° Southeast 156 180 1,100  Level FlightAware ADS-B
Sat 12:28:17 PM -32.1130 115.8970 106° East 160 184 1,100  Level FlightAware ADS-B
Sat 12:28:37 PM -32.1080 115.9130 70° East 157 181 1,100  Level FlightAware ADS-B
Sat 12:28:52 PM -32.1010 115.9210 44° Northeast 132 152 1,100  Level FlightAware ADS-B
Sat 12:28:57 PM -32.0970 115.9220 12° North 128 147 1,100 -200 Level FlightAware ADS-B
Sat 12:29:22 PM -32.0850 115.9140 331° Northwest 116 133 1,000 -514 Descending FlightAware ADS-B
Sat 12:29:32 PM -32.0820 115.9090 305° West 100 115 800 -800 Descending FlightAware ADS-B
Sat 12:29:37 PM -32.0820 115.9070 270° West 97 112 800 -800 Level FlightAware ADS-B
Sat 12:30:02 PM -32.0870 115.8960 242° Southwest 90 104 400 -933 Descending FlightAware ADS-B
Sat 12:30:22 PM -32.0920 115.8880 234° Southwest 86 99 100 -900 Descending FlightAware ADS-B
Sat 12:30:57 PM -32.0970 115.8800 234° Southwest 62 71 -171 Descending FlightAware ADS-B
Sat 12:31:07 PM -32.0980 115.8780 239° Southwest 36 41  Level FlightAware ADS-B
Sat 12:31:32 PM -32.1000 115.8740 239° Southwest 36 41  Level FlightAware ADS-B
Sat 12:34:00 PM -32.0975 115.8812 318° Northwest  Level FlightAware Approximate
Sat 12:35:00 PM -32.0975 115.8811 318° Northwest  Level Estimated
Sat 12:36:00 PM -32.0975 115.8811 318° Northwest  Level Estimated
Sat 12:37:00 PM -32.0975 115.8811 318° Northwest  Level Estimated
Sat 12:38:00 PM -32.0975 115.8811 318° Northwest  Level Estimated
Sat 12:39:00 PM -32.0975 115.8811 318° Northwest  Level Estimated
Sat 12:40:00 PM -32.0975 115.8811 318° Northwest  Level Estimated
Sat 12:41:00 PM -32.0975 115.8811 318° Northwest  Level Estimated

Login

Don't have an account? Register now (free) for customized features, flight alerts, and more!